Time;durP1;ratioP1;P1;durP2;ratioP2;P2;SDS_P1;SDS_P2;PMS_P1;PMS_P2;Temp;Humidity;BMP_temperature;BMP_pressure;BME280_temperature;BME280_humidity;BME280_pressure;Samples;Min_cycle;Max_cycle;Signal;HPM_P1;HPM_P2
2022/03/30 00:01:25;;;;;;;10.43;2.75;;;1.80;99.90;;;;;;5035599;28;20026;-69
2022/03/30 00:03:50;;;;;;;9.75;2.10;;;1.80;99.90;;;;;;5035482;28;20025;-68
2022/03/30 00:06:16;;;;;;;11.98;1.70;;;1.90;99.90;;;;;;5035503;28;20025;-68
2022/03/30 00:08:42;;;;;;;5.32;1.58;;;1.90;99.90;;;;;;5035519;28;20089;-68
2022/03/30 00:11:09;;;;;;;8.63;2.03;;;1.90;99.90;;;;;;5035448;28;20041;-68
2022/03/30 00:13:35;;;;;;;10.27;1.77;;;1.70;99.90;;;;;;5035584;28;20021;-68
2022/03/30 00:16:02;;;;;;;7.30;1.80;;;1.60;99.90;;;;;;5035507;28;20030;-68
2022/03/30 00:18:28;;;;;;;9.15;1.90;;;1.50;99.90;;;;;;5035573;28;20086;-68
2022/03/30 00:20:53;;;;;;;5.65;1.52;;;1.40;99.90;;;;;;5035780;28;20057;-68
2022/03/30 00:23:19;;;;;;;8.50;1.60;;;1.30;99.90;;;;;;5035305;28;20061;-68
2022/03/30 00:25:45;;;;;;;8.05;1.83;;;1.20;99.90;;;;;;5035185;28;20022;-68
2022/03/30 00:28:10;;;;;;;7.03;1.60;;;1.10;99.90;;;;;;5035421;28;20425;-68
2022/03/30 00:30:36;;;;;;;14.50;2.30;;;1.00;99.90;;;;;;5035058;28;20025;-69
2022/03/30 00:33:01;;;;;;;10.27;1.67;;;0.90;99.90;;;;;;5035072;28;20025;-70
2022/03/30 00:35:27;;;;;;;8.05;1.60;;;0.80;99.90;;;;;;5035190;28;20029;-68
2022/03/30 00:37:53;;;;;;;8.30;1.83;;;0.80;99.90;;;;;;5035460;28;20061;-68
2022/03/30 00:40:18;;;;;;;5.80;2.10;;;0.70;99.90;;;;;;5034879;28;20128;-69
2022/03/30 00:42:45;;;;;;;14.32;1.67;;;0.60;99.90;;;;;;5034794;28;20075;-69
2022/03/30 00:45:19;;;;;;;5.75;1.40;;;0.50;99.90;;;;;;5034662;28;20029;-70
2022/03/30 00:47:45;;;;;;;5.97;1.48;;;0.50;99.90;;;;;;5035307;28;20369;-68
2022/03/30 00:50:12;;;;;;;7.50;2.15;;;0.40;99.90;;;;;;5034667;28;20029;-68
2022/03/30 00:52:38;;;;;;;2.83;1.30;;;0.40;99.90;;;;;;5034218;28;20021;-68
2022/03/30 00:55:05;;;;;;;8.63;1.88;;;0.30;99.90;;;;;;5034502;28;20483;-69
2022/03/30 00:57:32;;;;;;;8.18;1.30;;;0.30;99.90;;;;;;5034504;28;20033;-69
2022/03/30 00:59:58;;;;;;;12.73;2.08;;;0.20;99.90;;;;;;5034486;28;20021;-69
2022/03/30 01:02:24;;;;;;;6.25;1.80;;;0.10;99.90;;;;;;5034491;28;20028;-70
2022/03/30 01:04:51;;;;;;;5.85;1.70;;;0.00;99.90;;;;;;5034355;28;20030;-70
2022/03/30 01:07:16;;;;;;;5.47;1.30;;;0.00;99.90;;;;;;5034358;28;20413;-70
2022/03/30 01:09:42;;;;;;;7.03;1.92;;;-0.10;99.90;;;;;;5034315;28;20113;-70
2022/03/30 01:12:11;;;;;;;4.43;1.75;;;-0.20;99.90;;;;;;5034520;28;20026;-70
2022/03/30 01:14:37;;;;;;;6.10;1.70;;;-0.20;99.90;;;;;;5034072;28;20030;-68
2022/03/30 01:17:04;;;;;;;6.60;2.03;;;-0.20;99.90;;;;;;5034176;28;20432;-68
2022/03/30 01:19:31;;;;;;;14.10;2.33;;;-0.30;99.90;;;;;;5034157;28;20499;-68
2022/03/30 01:21:57;;;;;;;3.88;1.83;;;-0.40;99.90;;;;;;5034118;28;20045;-68
2022/03/30 01:24:23;;;;;;;5.78;1.60;;;-0.40;99.90;;;;;;5034577;28;20025;-68
2022/03/30 01:26:48;;;;;;;6.50;2.25;;;-0.40;99.90;;;;;;5034261;28;20059;-68
2022/03/30 01:34:43;;;;;;;;;;;-0.50;99.90;;;;;;5034282;28;20047;-70
2022/03/30 01:37:10;;;;;;;5.40;1.52;;;-0.50;99.90;;;;;;5033890;28;19909;-70
2022/03/30 01:39:36;;;;;;;15.02;2.17;;;-0.50;99.90;;;;;;5034112;28;20105;-70
2022/03/30 01:42:02;;;;;;;9.05;1.88;;;-0.50;99.90;;;;;;5033976;28;20033;-70
2022/03/30 01:44:27;;;;;;;9.13;1.60;;;-0.60;99.90;;;;;;5033417;28;20037;-69
2022/03/30 01:46:53;;;;;;;10.27;3.00;;;-0.60;99.90;;;;;;5034317;28;20033;-70
2022/03/30 01:49:21;;;;;;;9.70;2.33;;;-0.60;99.90;;;;;;5033840;28;20029;-68
2022/03/30 01:51:49;;;;;;;8.48;2.50;;;-0.60;99.90;;;;;;5033656;28;20434;-68
2022/03/30 01:54:16;;;;;;;4.28;2.00;;;-0.70;99.90;;;;;;5033450;28;20024;-68
2022/03/30 01:56:41;;;;;;;7.68;1.92;;;-0.60;99.90;;;;;;5033594;28;20021;-68
2022/03/30 01:59:07;;;;;;;7.38;1.73;;;-0.70;99.90;;;;;;5033527;28;20067;-68
2022/03/30 02:01:33;;;;;;;5.47;1.52;;;-0.70;99.90;;;;;;5033499;28;20022;-68
2022/03/30 02:04:00;;;;;;;10.05;2.08;;;-0.80;99.90;;;;;;5033258;28;20034;-70
2022/03/30 02:06:26;;;;;;;8.38;2.35;;;-0.90;99.90;;;;;;5033436;28;20474;-70
2022/03/30 02:08:51;;;;;;;13.70;2.08;;;-0.90;99.90;;;;;;5033430;28;20025;-68
2022/03/30 02:11:17;;;;;;;14.27;2.38;;;-0.90;99.90;;;;;;5033941;28;20032;-69
2022/03/30 02:13:42;;;;;;;12.82;2.35;;;-0.90;99.90;;;;;;5033286;28;20040;-68
2022/03/30 02:16:08;;;;;;;6.35;2.33;;;-0.90;99.90;;;;;;5033281;28;20079;-68
2022/03/30 02:18:34;;;;;;;7.38;2.00;;;-1.00;99.90;;;;;;5033247;28;20072;-68
2022/03/30 02:21:00;;;;;;;11.77;2.00;;;-1.00;99.90;;;;;;5033292;28;20461;-68
2022/03/30 02:23:26;;;;;;;6.03;2.10;;;-1.00;99.90;;;;;;5033306;28;20032;-68
2022/03/30 02:25:52;;;;;;;12.93;2.13;;;-1.00;99.90;;;;;;5033193;28;20024;-69
2022/03/30 02:28:17;;;;;;;6.57;1.80;;;-1.10;99.90;;;;;;5033209;28;20036;-70
2022/03/30 02:30:43;;;;;;;16.65;4.75;;;-1.20;99.90;;;;;;5033170;28;20021;-70
2022/03/30 02:33:08;;;;;;;13.93;2.22;;;-1.20;99.90;;;;;;5033076;28;20037;-68
2022/03/30 02:35:34;;;;;;;10.15;2.03;;;-1.20;99.90;;;;;;5033095;28;20029;-69
2022/03/30 02:38:00;;;;;;;8.43;2.50;;;-1.20;99.90;;;;;;5033120;28;20115;-69
2022/03/30 02:40:26;;;;;;;7.60;2.20;;;-1.20;99.90;;;;;;5033798;28;20369;-69
2022/03/30 02:42:51;;;;;;;4.80;2.03;;;-1.30;99.90;;;;;;5033049;28;20030;-68
2022/03/30 02:45:17;;;;;;;6.65;1.67;;;-1.30;99.90;;;;;;5032879;28;20037;-68
2022/03/30 02:50:26;;;;;;;;;;;-1.50;99.90;;;;;;5033782;28;20072;-70
2022/03/30 02:52:52;;;;;;;9.63;3.10;;;-1.50;99.90;;;;;;5033201;28;19917;-70
2022/03/30 02:55:18;;;;;;;10.60;2.50;;;-1.60;99.90;;;;;;5033037;28;20025;-70
2022/03/30 02:57:43;;;;;;;8.45;1.73;;;-1.50;99.90;;;;;;5033054;28;20026;-68
2022/03/30 03:00:10;;;;;;;8.60;2.28;;;-1.50;99.90;;;;;;5033199;28;20022;-69
2022/03/30 03:02:35;;;;;;;6.82;2.70;;;-1.50;99.90;;;;;;5015204;28;20076;-69
2022/03/30 03:05:03;;;;;;;6.97;2.30;;;-1.50;99.90;;;;;;5032826;28;20033;-68
2022/03/30 03:07:28;;;;;;;4.57;2.13;;;-1.50;99.90;;;;;;5033152;28;20043;-68
2022/03/30 03:09:54;;;;;;;4.70;2.65;;;-1.50;99.90;;;;;;5032836;28;20473;-68
2022/03/30 03:12:20;;;;;;;3.28;1.70;;;-1.50;99.90;;;;;;5032852;28;20033;-68
2022/03/30 03:14:45;;;;;;;9.18;2.30;;;-1.50;99.90;;;;;;5033774;28;20056;-68
2022/03/30 03:17:11;;;;;;;9.52;2.85;;;-1.60;99.90;;;;;;5036382;28;20040;-68
2022/03/30 03:19:37;;;;;;;6.38;1.95;;;-1.60;99.90;;;;;;5036444;28;20096;-68
2022/03/30 03:22:03;;;;;;;5.82;2.40;;;-1.70;99.90;;;;;;5036935;28;20025;-69
2022/03/30 03:24:28;;;;;;;8.35;3.78;;;-1.80;99.90;;;;;;5036549;28;20092;-70
2022/03/30 03:26:54;;;;;;;11.05;2.42;;;-1.90;99.90;;;;;;5036248;28;20026;-70
2022/03/30 03:29:20;;;;;;;8.35;2.55;;;-2.00;99.90;;;;;;5036339;28;20022;-70
2022/03/30 03:31:45;;;;;;;8.88;2.28;;;-2.10;99.90;;;;;;5036174;28;20030;-70
2022/03/30 03:34:12;;;;;;;7.30;2.75;;;-2.10;99.90;;;;;;5036007;28;20029;-68
2022/03/30 03:36:37;;;;;;;8.93;2.70;;;-2.10;99.90;;;;;;5036131;28;20428;-69
2022/03/30 03:39:03;;;;;;;6.57;2.92;;;-2.10;99.90;;;;;;5036039;28;20047;-70
2022/03/30 03:41:28;;;;;;;7.78;2.58;;;-2.20;99.90;;;;;;5036004;28;20017;-70
2022/03/30 03:43:54;;;;;;;4.50;2.42;;;-2.20;99.90;;;;;;5018882;28;20068;-70
2022/03/30 03:46:20;;;;;;;7.50;2.28;;;-2.20;99.90;;;;;;5107594;22;20044;-68
2022/03/30 03:48:46;;;;;;;12.77;2.63;;;-2.30;99.90;;;;;;5056181;28;20092;-69
2022/03/30 03:51:12;;;;;;;8.13;2.30;;;-2.30;99.90;;;;;;5056417;28;20055;-69
2022/03/30 03:53:37;;;;;;;14.18;2.50;;;-2.30;99.90;;;;;;5056680;28;20473;-69
2022/03/30 03:56:04;;;;;;;13.45;2.97;;;-2.30;99.90;;;;;;5055989;28;20029;-69
2022/03/30 03:58:30;;;;;;;10.68;2.88;;;-2.30;99.90;;;;;;5056288;28;20078;-69
2022/03/30 04:00:55;;;;;;;3.45;2.42;;;-2.20;99.90;;;;;;5055934;28;20104;-69
2022/03/30 04:03:21;;;;;;;8.00;3.30;;;-2.20;99.90;;;;;;5055914;28;20033;-69
2022/03/30 04:05:47;;;;;;;7.35;2.08;;;-2.30;99.90;;;;;;5055898;28;20476;-69
2022/03/30 04:08:12;;;;;;;16.25;4.75;;;-2.30;99.90;;;;;;5055991;28;20025;-69
2022/03/30 04:10:38;;;;;;;4.95;2.03;;;-2.30;99.90;;;;;;5055794;28;20032;-69
2022/03/30 04:13:07;;;;;;;7.45;2.42;;;-2.30;99.90;;;;;;5055869;28;20025;-69
2022/03/30 04:15:37;;;;;;;5.95;2.10;;;-2.30;99.90;;;;;;5056022;28;20130;-69
2022/03/30 04:18:04;;;;;;;8.77;2.55;;;-2.40;99.90;;;;;;5055696;28;20017;-68
2022/03/30 04:20:30;;;;;;;8.13;2.75;;;-2.40;99.90;;;;;;5055663;28;20048;-68
2022/03/30 04:22:56;;;;;;;16.35;2.70;;;-2.50;99.90;;;;;;5055473;28;20036;-69
2022/03/30 04:25:21;;;;;;;8.00;2.50;;;-2.50;99.90;;;;;;5055374;28;20021;-69
2022/03/30 04:27:49;;;;;;;9.88;2.42;;;-2.50;99.90;;;;;;5055019;28;20021;-68
2022/03/30 04:30:16;;;;;;;6.78;2.50;;;-2.50;99.90;;;;;;5055406;28;20021;-68
2022/03/30 04:32:42;;;;;;;11.68;2.28;;;-2.50;99.90;;;;;;5055222;28;20021;-69
2022/03/30 04:35:08;;;;;;;14.35;4.43;;;-2.50;99.90;;;;;;5055163;28;20468;-69
2022/03/30 04:37:33;;;;;;;6.57;2.78;;;-2.50;99.90;;;;;;5055135;28;20070;-68
2022/03/30 04:39:59;;;;;;;7.40;2.90;;;-2.60;99.90;;;;;;5055312;28;20021;-69
2022/03/30 04:42:25;;;;;;;8.90;2.60;;;-2.60;99.90;;;;;;5055204;28;20017;-69
2022/03/30 04:44:50;;;;;;;8.93;2.03;;;-2.70;99.90;;;;;;5054764;28;20388;-68
2022/03/30 04:47:16;;;;;;;12.88;2.22;;;-2.80;99.90;;;;;;5055311;28;20029;-69
2022/03/30 04:49:42;;;;;;;9.10;2.85;;;-2.90;99.90;;;;;;5055189;28;20025;-69
2022/03/30 04:52:08;;;;;;;10.32;3.10;;;-3.00;99.90;;;;;;5054928;28;20029;-69
2022/03/30 04:54:34;;;;;;;8.35;2.53;;;-3.00;99.90;;;;;;5054720;28;20052;-68
2022/03/30 04:56:59;;;;;;;8.90;2.33;;;-3.10;99.90;;;;;;5054863;28;20384;-68
2022/03/30 04:59:25;;;;;;;12.60;3.25;;;-3.20;99.90;;;;;;5036924;28;20127;-68
2022/03/30 05:01:50;;;;;;;4.45;2.58;;;-3.10;99.90;;;;;;5054790;28;20072;-69
2022/03/30 05:04:16;;;;;;;5.15;2.60;;;-3.10;99.90;;;;;;5054637;28;20029;-68
2022/03/30 05:06:41;;;;;;;6.95;1.92;;;-3.20;99.90;;;;;;5054524;28;20459;-68
2022/03/30 05:09:07;;;;;;;8.63;2.50;;;-3.20;99.90;;;;;;5054594;28;20021;-68
2022/03/30 05:11:32;;;;;;;16.02;3.03;;;-3.20;99.90;;;;;;5054441;28;20388;-68
2022/03/30 05:13:58;;;;;;;9.93;3.15;;;-3.10;99.90;;;;;;5054447;28;20056;-68
2022/03/30 05:16:24;;;;;;;8.57;2.65;;;-3.10;99.90;;;;;;5054369;28;20076;-68
2022/03/30 05:18:49;;;;;;;3.67;2.35;;;-3.10;99.90;;;;;;5054357;28;20068;-68
2022/03/30 05:21:15;;;;;;;8.30;3.00;;;-3.00;99.90;;;;;;5054614;28;20480;-68
2022/03/30 05:23:40;;;;;;;6.50;2.72;;;-3.00;99.90;;;;;;5054193;28;20021;-68
2022/03/30 05:26:06;;;;;;;10.45;3.42;;;-2.90;99.90;;;;;;5054190;28;20485;-69
2022/03/30 05:28:31;;;;;;;11.88;3.58;;;-2.90;99.90;;;;;;5054460;28;20028;-69
2022/03/30 05:30:57;;;;;;;25.45;3.40;;;-3.00;99.90;;;;;;5054134;28;20025;-69
2022/03/30 05:33:23;;;;;;;15.65;3.40;;;-3.00;99.90;;;;;;5054033;28;20040;-68
2022/03/30 05:35:50;;;;;;;10.80;4.28;;;-3.10;99.90;;;;;;5054286;28;20037;-69
2022/03/30 05:38:16;;;;;;;11.60;3.67;;;-3.10;99.90;;;;;;5053833;28;20451;-69
2022/03/30 05:40:42;;;;;;;9.93;3.65;;;-3.00;99.90;;;;;;5054329;28;20040;-69
2022/03/30 05:43:08;;;;;;;11.88;4.80;;;-3.10;99.90;;;;;;5053958;28;20095;-68
2022/03/30 05:45:34;;;;;;;9.88;4.22;;;-3.00;99.90;;;;;;5053887;28;20535;-69
2022/03/30 05:48:00;;;;;;;12.55;3.42;;;-3.00;99.90;;;;;;5053861;28;20119;-68
2022/03/30 05:50:26;;;;;;;7.18;3.72;;;-2.90;99.90;;;;;;5054076;28;20021;-69
2022/03/30 05:52:52;;;;;;;7.22;3.72;;;-2.90;99.90;;;;;;5053693;28;20033;-69
2022/03/30 05:55:17;;;;;;;6.72;3.83;;;-2.80;99.90;;;;;;5035912;28;20517;-69
2022/03/30 05:57:43;;;;;;;8.50;3.53;;;-2.70;99.90;;;;;;5053695;28;20032;-69
2022/03/30 06:00:10;;;;;;;14.23;4.32;;;-2.60;99.90;;;;;;5053665;28;20054;-69
2022/03/30 06:02:37;;;;;;;7.85;4.38;;;-2.50;99.90;;;;;;5053738;28;20029;-69
2022/03/30 06:05:03;;;;;;;11.43;3.60;;;-2.40;99.90;;;;;;5053498;28;20024;-69
2022/03/30 06:07:29;;;;;;;7.03;3.65;;;-2.20;99.90;;;;;;5053803;28;20107;-69
2022/03/30 06:09:55;;;;;;;14.55;5.60;;;-2.10;99.90;;;;;;5053921;28;20025;-69
2022/03/30 06:12:23;;;;;;;13.90;4.53;;;-1.90;99.90;;;;;;5053502;28;20017;-69
2022/03/30 06:14:49;;;;;;;12.77;4.55;;;-1.70;99.90;;;;;;5053661;28;20018;-69
2022/03/30 06:17:15;;;;;;;11.32;4.35;;;-1.50;99.90;;;;;;5053451;28;20027;-68
2022/03/30 06:19:41;;;;;;;15.27;4.88;;;-1.40;99.90;;;;;;5053432;28;20079;-68
2022/03/30 06:22:10;;;;;;;12.65;4.35;;;-1.20;99.90;;;;;;5053459;28;20473;-69
2022/03/30 06:24:36;;;;;;;14.18;5.10;;;-1.10;99.90;;;;;;5053718;28;20036;-69
2022/03/30 06:27:04;;;;;;;15.15;5.03;;;-1.00;99.90;;;;;;5053480;28;20488;-69
2022/03/30 06:29:30;;;;;;;13.52;5.35;;;-0.80;99.90;;;;;;5053403;28;20021;-68
2022/03/30 06:31:56;;;;;;;14.27;5.18;;;-0.60;99.90;;;;;;5053737;28;20067;-69
2022/03/30 06:34:22;;;;;;;11.43;5.00;;;-0.40;99.90;;;;;;5053657;28;20072;-69
2022/03/30 06:36:48;;;;;;;11.23;4.20;;;-0.30;99.90;;;;;;5053860;28;20040;-69
2022/03/30 06:39:13;;;;;;;11.80;5.20;;;-0.20;99.90;;;;;;5053666;28;20119;-68
2022/03/30 06:41:39;;;;;;;23.90;6.35;;;0.00;99.90;;;;;;5053562;28;20107;-69
2022/03/30 06:44:05;;;;;;;27.67;7.20;;;0.20;99.90;;;;;;5053617;28;20029;-69
2022/03/30 06:46:33;;;;;;;16.90;6.57;;;0.40;99.90;;;;;;5053044;28;20044;-69
2022/03/30 06:49:00;;;;;;;15.52;5.85;;;0.60;99.90;;;;;;5053791;28;20029;-69
2022/03/30 06:51:26;;;;;;;20.55;5.45;;;0.80;99.90;;;;;;5056833;28;20028;-69
2022/03/30 06:53:52;;;;;;;17.23;5.03;;;1.00;99.90;;;;;;5057432;28;20037;-69
2022/03/30 06:56:17;;;;;;;13.18;5.05;;;1.20;99.90;;;;;;5057094;28;20021;-69
2022/03/30 06:58:43;;;;;;;23.70;6.90;;;1.40;99.90;;;;;;5057108;28;20071;-69
2022/03/30 07:01:09;;;;;;;25.45;8.48;;;1.50;99.90;;;;;;5056924;28;20025;-69
2022/03/30 07:03:34;;;;;;;36.80;11.38;;;1.70;99.90;;;;;;5057582;28;20029;-69
2022/03/30 07:06:02;;;;;;;33.08;9.52;;;1.90;99.90;;;;;;5056876;28;20108;-69
2022/03/30 07:11:11;;;;;;;15.35;4.43;;;2.20;99.90;;;;;;5057199;28;20128;-69
2022/03/30 07:13:37;;;;;;;12.63;3.67;;;2.30;99.90;;;;;;5056928;28;20112;-69
2022/03/30 07:16:04;;;;;;;11.23;4.15;;;2.40;99.90;;;;;;5056661;28;20017;-69
2022/03/30 07:18:30;;;;;;;19.77;4.45;;;2.60;99.90;;;;;;5056870;28;20021;-68
2022/03/30 07:20:56;;;;;;;13.30;3.47;;;2.90;99.90;;;;;;5056512;28;20078;-69
2022/03/30 07:23:23;;;;;;;14.55;3.25;;;2.90;99.90;;;;;;5056666;28;20024;-68
2022/03/30 07:25:49;;;;;;;18.20;3.65;;;3.10;99.90;;;;;;5056451;28;20029;-70
2022/03/30 07:28:16;;;;;;;8.40;3.33;;;3.50;99.90;;;;;;5056935;28;20385;-70
2022/03/30 07:30:43;;;;;;;18.08;3.30;;;3.60;99.90;;;;;;5056531;28;20032;-70
2022/03/30 07:33:09;;;;;;;17.27;2.80;;;3.90;99.90;;;;;;5056381;28;20032;-70
2022/03/30 07:35:35;;;;;;;10.90;2.78;;;4.00;99.90;;;;;;5056332;28;20479;-69
2022/03/30 07:38:01;;;;;;;9.75;2.92;;;4.20;99.90;;;;;;5056521;28;20440;-69
2022/03/30 07:40:29;;;;;;;19.33;3.28;;;4.40;99.90;;;;;;5056401;28;20021;-69
2022/03/30 07:42:56;;;;;;;17.88;2.72;;;4.50;99.90;;;;;;5056754;28;20535;-69
2022/03/30 07:45:23;;;;;;;11.55;2.53;;;4.70;99.90;;;;;;5056191;28;20120;-69
2022/03/30 07:47:49;;;;;;;15.77;3.03;;;4.80;99.90;;;;;;5056238;28;20060;-69
2022/03/30 07:50:15;;;;;;;11.27;2.15;;;5.00;99.90;;;;;;5056577;28;20048;-69
2022/03/30 07:52:42;;;;;;;15.65;2.38;;;5.40;99.90;;;;;;5056349;28;20031;-69
2022/03/30 07:55:09;;;;;;;11.77;2.20;;;5.60;99.90;;;;;;5055818;28;20488;-69
2022/03/30 07:57:37;;;;;;;9.52;1.98;;;5.80;99.90;;;;;;5056557;28;20051;-69
2022/03/30 08:00:06;;;;;;;23.95;2.72;;;6.10;99.90;;;;;;5056270;28;20055;-68
2022/03/30 08:02:32;;;;;;;22.58;1.92;;;6.30;99.90;;;;;;5056025;28;20377;-69
2022/03/30 08:04:57;;;;;;;11.73;2.10;;;6.40;99.90;;;;;;5055853;28;20032;-68
2022/03/30 08:07:26;;;;;;;19.60;2.10;;;6.60;99.90;;;;;;5055781;28;20028;-68
2022/03/30 08:09:51;;;;;;;7.75;2.00;;;6.80;99.90;;;;;;5056195;28;20029;-69
2022/03/30 08:12:17;;;;;;;19.45;2.47;;;6.70;99.90;;;;;;5037758;28;20031;-68
2022/03/30 08:14:43;;;;;;;8.05;1.63;;;6.80;99.90;;;;;;5055444;28;20033;-69
2022/03/30 08:17:10;;;;;;;10.55;2.30;;;6.90;99.90;;;;;;5055997;28;20086;-69
2022/03/30 08:19:35;;;;;;;9.80;2.28;;;7.10;99.90;;;;;;5055431;28;20071;-68
2022/03/30 08:24:48;;;;;;;5.63;1.80;;;7.30;99.90;;;;;;5055322;28;20503;-68
2022/03/30 08:27:22;;;;;;;10.57;1.65;;;7.40;99.90;;;;;;5055555;28;20037;-68
2022/03/30 08:29:48;;;;;;;9.73;2.08;;;7.50;99.90;;;;;;5055399;28;20024;-69
2022/03/30 08:32:15;;;;;;;11.30;2.47;;;7.90;99.90;;;;;;5055285;28;20025;-68
2022/03/30 08:34:42;;;;;;;7.90;2.13;;;8.20;99.90;;;;;;5055180;28;20562;-69
2022/03/30 08:37:08;;;;;;;15.30;2.55;;;8.40;99.90;;;;;;5055557;28;20025;-69
2022/03/30 08:39:35;;;;;;;6.55;1.83;;;7.90;99.90;;;;;;5055417;28;20021;-69
2022/03/30 08:42:05;;;;;;;12.90;1.88;;;8.00;99.90;;;;;;5055209;28;20017;-68
2022/03/30 08:44:32;;;;;;;11.07;2.58;;;7.90;99.90;;;;;;5054740;28;20021;-68
2022/03/30 08:46:59;;;;;;;7.65;1.33;;;8.10;99.90;;;;;;5055311;28;20056;-68
2022/03/30 08:49:26;;;;;;;14.10;1.60;;;8.30;99.90;;;;;;5054947;28;20025;-68
2022/03/30 08:51:53;;;;;;;14.32;2.70;;;8.60;99.90;;;;;;5054878;28;20100;-68
2022/03/30 08:54:19;;;;;;;7.97;1.88;;;8.50;99.90;;;;;;5055045;28;20132;-68
2022/03/30 08:56:46;;;;;;;16.13;2.78;;;9.00;99.90;;;;;;5054807;28;20516;-68
2022/03/30 08:59:19;;;;;;;11.35;1.67;;;9.60;99.90;;;;;;5054929;28;20393;-68
2022/03/30 09:01:45;;;;;;;11.05;1.50;;;10.00;99.90;;;;;;5055093;28;20064;-68
2022/03/30 09:04:13;;;;;;;11.25;1.58;;;10.10;99.90;;;;;;5054774;28;20507;-68
2022/03/30 09:06:41;;;;;;;7.88;1.50;;;9.90;99.90;;;;;;5054495;28;20032;-68
2022/03/30 09:09:08;;;;;;;9.27;2.08;;;9.50;99.90;;;;;;5054839;28;20071;-68
2022/03/30 09:11:55;;;;;;;17.27;2.90;;;9.50;99.90;;;;;;5054896;28;20454;-68
2022/03/30 09:14:28;;;;;;;6.95;1.42;;;9.80;99.90;;;;;;5054495;28;20103;-68
2022/03/30 09:16:57;;;;;;;12.90;1.92;;;10.20;99.90;;;;;;5054896;28;20031;-68
2022/03/30 09:19:23;;;;;;;5.32;1.63;;;10.20;99.90;;;;;;5054688;28;20453;-69
2022/03/30 09:21:57;;;;;;;9.43;1.35;;;9.70;99.90;;;;;;5054777;28;20465;-68
2022/03/30 09:24:27;;;;;;;4.63;1.60;;;9.30;99.90;;;;;;5054596;28;20024;-68
2022/03/30 09:26:54;;;;;;;11.23;3.58;;;8.80;99.90;;;;;;5054602;28;20025;-68
2022/03/30 09:29:21;;;;;;;15.02;3.28;;;8.30;99.90;;;;;;5054227;28;20032;-68
2022/03/30 09:31:51;;;;;;;14.20;3.35;;;8.00;99.90;;;;;;5054325;28;20029;-68
2022/03/30 09:34:19;;;;;;;9.15;2.17;;;7.70;99.90;;;;;;5054107;28;20119;-68
2022/03/30 09:36:45;;;;;;;13.60;1.58;;;7.50;99.90;;;;;;5054382;28;20055;-68
2022/03/30 09:39:33;;;;;;;13.38;2.30;;;7.10;99.90;;;;;;5054388;28;20428;-68
2022/03/30 09:42:00;;;;;;;12.27;2.35;;;6.60;99.90;;;;;;5054030;28;20028;-68
2022/03/30 09:44:30;;;;;;;13.63;2.92;;;6.40;99.90;;;;;;5053754;28;20032;-68
2022/03/30 09:47:06;;;;;;;11.75;2.25;;;6.20;99.90;;;;;;5054352;28;20033;-68
2022/03/30 09:49:33;;;;;;;5.95;1.88;;;6.30;99.90;;;;;;5054126;28;20077;-68
2022/03/30 09:51:59;;;;;;;7.20;1.92;;;6.30;99.90;;;;;;5053695;28;20032;-68
2022/03/30 09:54:49;;;;;;;7.28;2.13;;;6.60;99.90;;;;;;5053377;28;20021;-68
2022/03/30 09:57:29;;;;;;;16.65;2.60;;;7.00;99.90;;;;;;5053637;28;20021;-67
2022/03/30 10:00:06;;;;;;;11.00;2.92;;;7.30;99.90;;;;;;5053593;28;20063;-67
2022/03/30 10:02:40;;;;;;;10.65;2.80;;;7.80;99.90;;;;;;5054095;28;20055;-68
2022/03/30 10:05:07;;;;;;;9.02;2.95;;;8.00;99.90;;;;;;5053734;28;20029;-68
2022/03/30 10:07:33;;;;;;;13.35;2.60;;;8.30;99.90;;;;;;5053698;28;20412;-68
2022/03/30 10:10:00;;;;;;;8.73;2.15;;;8.70;99.90;;;;;;5053427;28;20079;-68
2022/03/30 10:12:26;;;;;;;4.00;1.95;;;9.00;99.90;;;;;;5053472;28;20112;-68
2022/03/30 10:14:54;;;;;;;11.95;2.13;;;9.40;99.90;;;;;;5053312;28;20096;-68
2022/03/30 10:17:20;;;;;;;9.77;1.48;;;9.70;99.90;;;;;;5053561;28;20492;-68
2022/03/30 10:19:46;;;;;;;13.55;2.33;;;9.70;99.90;;;;;;5053600;28;20029;-68
2022/03/30 10:22:49;;;;;;;15.80;3.88;;;9.70;99.90;;;;;;5053183;28;20558;-68
2022/03/30 10:25:23;;;;;;;16.50;1.83;;;9.50;99.90;;;;;;5055156;28;20025;-68
2022/03/30 10:27:56;;;;;;;10.90;1.95;;;9.50;99.90;;;;;;5057432;28;20029;-68
2022/03/30 10:30:32;;;;;;;5.75;1.45;;;9.50;99.90;;;;;;5057363;28;20032;-67
2022/03/30 10:33:03;;;;;;;5.55;1.70;;;9.40;99.90;;;;;;5057212;28;20036;-67
2022/03/30 10:35:46;;;;;;;8.95;1.80;;;9.60;99.90;;;;;;5057266;28;20507;-67
2022/03/30 10:38:12;;;;;;;9.00;1.88;;;9.50;99.90;;;;;;5057495;28;20526;-67
2022/03/30 10:40:38;;;;;;;13.32;1.65;;;9.80;99.90;;;;;;5057445;28;20025;-68
2022/03/30 10:43:09;;;;;;;9.07;1.83;;;9.90;99.90;;;;;;5057324;28;20013;-68
2022/03/30 10:45:46;;;;;;;9.77;1.88;;;9.60;99.90;;;;;;5057030;28;20102;-67
2022/03/30 10:48:17;;;;;;;9.68;1.95;;;9.00;99.90;;;;;;5057033;28;20400;-67
2022/03/30 10:50:55;;;;;;;8.90;1.88;;;8.90;99.90;;;;;;5056957;28;20040;-67
2022/03/30 10:53:30;;;;;;;12.85;1.98;;;8.30;99.90;;;;;;5057267;28;20477;-67
2022/03/30 10:56:07;;;;;;;8.93;2.05;;;7.90;99.90;;;;;;5056813;28;20021;-67
2022/03/30 10:58:33;;;;;;;8.07;1.70;;;7.80;99.90;;;;;;5057076;28;20411;-67
2022/03/30 11:01:15;;;;;;;4.03;1.58;;;7.60;99.90;;;;;;5056935;28;20107;-67
2022/03/30 11:04:06;;;;;;;4.72;1.40;;;7.40;99.90;;;;;;5056995;28;20033;-67
2022/03/30 11:06:40;;;;;;;9.65;1.92;;;7.40;99.90;;;;;;5056896;28;20017;-67
2022/03/30 11:09:15;;;;;;;15.98;1.77;;;7.50;99.90;;;;;;5056667;28;20032;-67
2022/03/30 11:11:45;;;;;;;7.03;1.85;;;7.50;99.90;;;;;;5057030;28;20059;-68
2022/03/30 11:14:33;;;;;;;11.68;1.30;;;7.60;99.90;;;;;;5056765;28;20033;-67
2022/03/30 11:17:23;;;;;;;17.67;2.58;;;7.70;99.90;;;;;;5056706;28;20048;-67
2022/03/30 11:19:55;;;;;;;7.97;2.05;;;7.70;99.90;;;;;;5043171;28;20037;-67
2022/03/30 11:22:28;;;;;;;5.55;1.77;;;7.80;99.90;;;;;;5056642;28;20083;-67
2022/03/30 11:25:29;;;;;;;10.25;2.50;;;8.90;99.90;;;;;;5056303;28;20124;-68
2022/03/30 11:27:58;;;;;;;9.48;1.55;;;10.50;99.90;;;;;;4956680;29;20066;-68
2022/03/30 11:30:28;;;;;;;5.80;1.90;;;11.30;99.90;;;;;;5037622;28;20033;-68
2022/03/30 11:33:00;;;;;;;3.88;1.48;;;11.20;99.90;;;;;;5056451;28;20017;-68
2022/03/30 11:35:29;;;;;;;6.45;1.65;;;11.10;99.90;;;;;;5055899;28;20025;-67
2022/03/30 11:38:01;;;;;;;15.60;2.42;;;10.60;99.90;;;;;;5056090;28;20071;-67
2022/03/30 11:40:26;;;;;;;5.80;1.65;;;10.30;99.90;;;;;;5056001;28;20063;-68
2022/03/30 11:42:55;;;;;;;8.75;2.08;;;9.60;99.90;;;;;;5056566;28;20048;-68
2022/03/30 11:45:23;;;;;;;6.90;1.70;;;9.30;99.90;;;;;;5056085;28;20090;-68
2022/03/30 11:47:51;;;;;;;8.48;2.47;;;9.10;99.90;;;;;;5038046;28;20044;-68
2022/03/30 11:50:24;;;;;;;3.45;1.85;;;9.00;99.90;;;;;;5055878;28;20025;-68
2022/03/30 11:53:02;;;;;;;8.98;1.75;;;9.10;99.90;;;;;;5056296;28;20086;-68
2022/03/30 11:55:29;;;;;;;4.97;1.85;;;9.30;99.90;;;;;;5055778;28;20086;-68
2022/03/30 11:57:57;;;;;;;13.40;2.00;;;9.20;99.90;;;;;;5055746;28;20048;-68
2022/03/30 12:00:25;;;;;;;8.55;2.47;;;8.80;99.90;;;;;;5055933;28;20496;-67
2022/03/30 12:02:53;;;;;;;12.98;1.90;;;8.80;99.90;;;;;;5055671;28;20044;-68
2022/03/30 12:05:19;;;;;;;8.20;1.55;;;8.70;99.90;;;;;;5055471;28;20484;-68
2022/03/30 12:07:50;;;;;;;6.93;1.98;;;8.90;99.90;;;;;;5055545;28;20029;-68
2022/03/30 12:10:16;;;;;;;5.43;1.52;;;9.00;99.90;;;;;;5055811;28;20060;-68
2022/03/30 12:12:43;;;;;;;3.95;1.52;;;9.20;99.90;;;;;;5055481;28;20021;-68
2022/03/30 12:15:17;;;;;;;7.15;2.08;;;8.90;99.90;;;;;;5055277;28;20108;-68
2022/03/30 12:17:48;;;;;;;;;;;9.20;99.90;;;;;;5055760;28;20045;-68
2022/03/30 12:20:28;;;;;;;11.32;1.70;;;9.60;99.90;;;;;;5055698;28;19905;-68
2022/03/30 12:22:59;;;;;;;5.95;2.00;;;9.90;99.90;;;;;;5055516;28;20100;-68
2022/03/30 12:25:31;;;;;;;8.73;2.58;;;10.10;99.90;;;;;;5055626;28;20048;-67
2022/03/30 12:27:58;;;;;;;12.27;2.40;;;10.40;99.90;;;;;;5055211;28;20082;-68
2022/03/30 12:30:24;;;;;;;5.18;2.22;;;10.60;99.90;;;;;;5055311;28;20482;-68
2022/03/30 12:32:50;;;;;;;6.93;2.10;;;10.80;99.90;;;;;;5055053;28;20536;-68
2022/03/30 12:35:16;;;;;;;6.40;2.00;;;10.90;99.90;;;;;;5054846;28;20107;-68
2022/03/30 12:37:45;;;;;;;2.85;1.67;;;11.00;99.90;;;;;;5055281;28;20017;-68
2022/03/30 12:40:20;;;;;;;6.85;1.95;;;11.10;99.90;;;;;;5054787;28;20496;-68
2022/03/30 12:42:47;;;;;;;6.55;2.30;;;11.10;99.90;;;;;;5055202;28;20473;-67
2022/03/30 12:45:15;;;;;;;7.53;2.70;;;11.10;99.90;;;;;;5054640;28;20041;-68
2022/03/30 12:47:55;;;;;;;5.38;1.80;;;11.20;99.90;;;;;;5053947;28;20530;-68
2022/03/30 12:50:29;;;;;;;8.80;2.10;;;10.50;99.90;;;;;;5054700;28;20028;-67
2022/03/30 12:53:16;;;;;;;4.72;1.60;;;10.30;99.90;;;;;;5054996;28;20025;-68
2022/03/30 12:55:44;;;;;;;7.40;2.10;;;9.90;99.90;;;;;;5036713;28;20029;-68
2022/03/30 12:58:16;;;;;;;12.55;2.58;;;9.80;99.90;;;;;;5054683;28;20062;-68
2022/03/30 13:00:47;;;;;;;10.05;2.75;;;9.70;99.90;;;;;;5054606;28;20039;-68
2022/03/30 13:03:18;;;;;;;6.80;1.85;;;9.40;99.90;;;;;;5054504;28;20033;-68
2022/03/30 13:05:45;;;;;;;5.07;1.98;;;9.10;99.90;;;;;;5054636;28;20380;-68